Wednesday, November 26, 2014
13:53 UTC
  |  Log In   |  Register Free
Airport Search:

Julian Carroll Airport
(KJKL)

Julian Carroll Airport Diagram
No Airport Diagram Available

FAA data valid effective November 13, 2014 - January 08, 2015 (unless otherwise noted).

 
 
 
 
 
 
 
 
 
 
 
 
 
 

Current Aviation Weather for Julian Carroll Airport (KJKL)

The most recent METAR observation for KJKL was updated at: 1317
METAR Summary (Translated METAR)
KJKL
261253Z AUTO 00000KT 10SM BKN065 OVC095 01/M03 A3003 RMK AO2 SLP176 T00061033
KSJS
261255Z AUTO 34003KT 10SM BKN048 02/M01 A3003 RMK AO2 T00221010
(33.7 nm NE from KJKL)
KPBX
261255Z AUTO 00000KT 10SM OVC015 02/00 A3003 RMK AO2 T00181005
(35.8 nm SE from KJKL)
TAF Summary (Translated TAF)
KJKL
261140Z 2612/2712 31006KT P6SM SCT120 FM261300 VRB04KT P6SM SCT020 BKN035 FM270200 VRB04KT P6SM VCSH BKN040 FM270400 VRB04KT 5SM -SNRA OVC025
KSJS
(33.7 nm NE from KJKL)
261140Z 2612/2712 00000KT P6SM BKN150 FM261500 VRB05KT P6SM SCT015 BKN030 FM270400 VRB04KT P6SM VCSH BKN035 FM270500 VRB04KT 5SM -SNRA BKN030
  Airport Weather Conditions for KJKL

 Current Weather at JKL
33° F
Overcast
North winds at 0.0 mph
JKL NOAA Radar

Pressure: 30.03 in
Humidity: 75%
Wind: Calm
Dew Point: 26.1°F
Visibility: 10.00 mi


Airport Weather Forecast for KJKL

Translated METAR and TAF for KJKL
Translated METAR for KJKL (1348 UTC 26 November 2014)
found at http://aviationweather.gov/adds/metars/
 
METAR text: KJKL 261253Z AUTO 00000KT 10SM BKN065 OVC095 01/M03 A3003 RMK AO2 SLP176 T00061033
Conditions at: KJKL (NOCTOR/JACKSON , KY, US) observed 1253 UTC 26 November 2014
Temperature: 0.6°C (33°F)
Dewpoint: -3.3°C (26°F) [RH = 75%]
Pressure (altimeter): 30.03 inches Hg (1017.0 mb)
[Sea-level pressure: 1017.6 mb]
Winds: calm
Visibility: 10 or more miles (16+ km)
Ceiling: 6500 feet AGL
Clouds: broken clouds at 6500 feet AGL
overcast cloud deck at 9500 feet AGL
Weather: automated observation with no human augmentation;
there may or may not be significant weather present at this time
Translated TAF for KJKL
Forecast for: KJKL (NOCTOR/JACKSON , KY, US)
TAF Text: KJKL 261140Z 2612/2712 31006KT P6SM SCT120
Forecast period: 1200 to 1300 UTC 26 November 2014
Forecast type: FROM: standard forecast or significant change
Winds: from the NW (310 degrees) at 7 MPH (6 knots; 3.1 m/s)
Visibility: 6 or more miles (10+ km)
Clouds: scattered clouds at 12000 feet AGL
Weather: no significant weather forecast for this period
TAF Text: FM261300 VRB04KT P6SM SCT020 BKN035
Forecast period: 1300 UTC 26 November 2014 to 0200 UTC 27 November 2014
Forecast type: FROM: standard forecast or significant change
Winds: variable direction winds at 5 MPH (4 knots; 2.1 m/s)
Visibility: 6 or more miles (10+ km)
Ceiling: 3500 feet AGL
Clouds: scattered clouds at 2000 feet AGL
broken clouds at 3500 feet AGL
Weather: no significant weather forecast for this period
TAF Text: FM270200 VRB04KT P6SM VCSH BKN040
Forecast period: 0200 to 0400 UTC 27 November 2014
Forecast type: FROM: standard forecast or significant change
Winds: variable direction winds at 5 MPH (4 knots; 2.1 m/s)
Visibility: 6 or more miles (10+ km)
Ceiling: 4000 feet AGL
Clouds: broken clouds at 4000 feet AGL
Weather: VCSH  (showers in vicinity)
TAF Text: FM270400 VRB04KT 5SM -SNRA OVC025
Forecast period: 0400 to 1200 UTC 27 November 2014
Forecast type: FROM: standard forecast or significant change
Winds: variable direction winds at 5 MPH (4 knots; 2.1 m/s)
Visibility: 5 miles (8 km)
Ceiling: 2500 feet AGL
Clouds: overcast cloud deck at 2500 feet AGL
Weather: -SN -RA  (light snow, light rain)

Find All Airport Services Find A Hotel Find A Rental Car Find A Golf Course Find A Restaurant $100 Hamburger



FBO's on the Field
FBO Company Facility Photos Services Transportation Aviation Fuel Prices: Prices include tax
Catering Weather Repair Courtesy Rental Type 100LL JetA JetA+ MOGAS 8087
 
Julian Carroll Airport

This FBO has not yet been rated
FS:Independent
Last Updated: Nov-18
Login to update fuel prices
SS:
Contact Julian Carroll AirportMore FBO Information
 
Add another FBO Facility Photos Catering Weather Repair Courtesy Rental Type 100LL JetA JetA+ MOGAS 8087
Services Transportation Aviation Fuel Prices: Prices include tax


model-print
model-print
model-print
model-print